createdAt,value
2018-09-21T00:01:03.000Z,0.00
2018-09-21T00:02:03.056Z,0.00
2018-09-21T00:03:56.055Z,0.00
2018-09-21T00:04:56.115Z,0.00
2018-09-21T00:06:49.115Z,0.00
2018-09-21T00:07:49.204Z,0.00
2018-09-21T00:09:42.188Z,0.00
2018-09-21T00:10:42.235Z,0.00
2018-09-21T00:12:35.232Z,0.00
2018-09-21T00:13:35.292Z,0.00
2018-09-21T00:15:28.291Z,0.00
2018-09-21T00:16:28.348Z,0.00
2018-09-21T00:18:21.342Z,0.00
2018-09-21T00:19:21.405Z,0.00
2018-09-21T00:21:14.405Z,0.00
2018-09-21T00:22:14.460Z,0.00
2018-09-21T00:24:07.455Z,0.00
2018-09-21T00:25:07.517Z,0.00
2018-09-21T00:27:00.515Z,0.00
2018-09-21T00:28:00.574Z,0.00
2018-09-21T00:29:53.575Z,0.00
2018-09-21T00:30:53.626Z,0.00
2018-09-21T00:32:46.620Z,0.00
2018-09-21T00:33:46.685Z,0.00
2018-09-21T00:35:39.683Z,0.00
2018-09-21T00:36:39.744Z,0.00
2018-09-21T00:38:32.737Z,0.00
2018-09-21T00:39:32.800Z,0.00
2018-09-21T00:41:25.795Z,0.00
2018-09-21T00:42:25.853Z,0.00
2018-09-21T00:44:18.852Z,0.00
2018-09-21T00:45:18.910Z,0.00
2018-09-21T00:47:11.910Z,0.00
2018-09-21T00:48:11.964Z,0.00
2018-09-21T00:50:04.958Z,0.00
2018-09-21T00:51:05.023Z,0.00
2018-09-21T00:52:58.020Z,0.00
2018-09-21T00:53:58.074Z,0.00
2018-09-21T00:55:51.069Z,0.00
2018-09-21T00:56:51.130Z,0.00
2018-09-21T00:58:44.136Z,0.00
2018-09-21T00:59:44.189Z,0.00
2018-09-21T01:01:37.188Z,0.00
2018-09-21T01:02:37.246Z,0.00
2018-09-21T01:04:30.245Z,0.00
2018-09-21T01:05:30.307Z,0.00
2018-09-21T01:07:23.308Z,0.00
2018-09-21T01:08:23.366Z,0.00
2018-09-21T01:10:16.355Z,0.00
2018-09-21T01:11:16.418Z,0.00
2018-09-21T01:13:09.418Z,0.00
2018-09-21T01:14:09.473Z,0.00
2018-09-21T01:16:02.468Z,0.00
2018-09-21T01:17:02.529Z,0.00
2018-09-21T01:18:55.529Z,0.00
2018-09-21T01:19:55.585Z,0.00
2018-09-21T01:21:48.588Z,0.00
2018-09-21T01:22:48.644Z,0.00
2018-09-21T01:24:41.637Z,0.00
2018-09-21T01:25:41.698Z,0.00
2018-09-21T01:27:34.698Z,0.00
2018-09-21T01:28:34.755Z,0.00
2018-09-21T01:30:27.754Z,0.00
2018-09-21T01:31:27.816Z,0.00
2018-09-21T01:33:20.815Z,0.00
2018-09-21T01:34:20.899Z,0.00
2018-09-21T01:36:13.862Z,0.00
2018-09-21T01:37:13.948Z,0.00
2018-09-21T01:39:06.924Z,0.00
2018-09-21T01:40:06.987Z,0.00
2018-09-21T01:41:59.979Z,0.00
2018-09-21T01:43:00.037Z,0.00
2018-09-21T01:44:53.033Z,0.00
2018-09-21T01:45:53.098Z,0.00
2018-09-21T01:47:46.101Z,0.00
2018-09-21T01:48:46.147Z,0.00
2018-09-21T01:50:39.141Z,0.00
2018-09-21T01:51:39.206Z,0.00
2018-09-21T01:53:32.205Z,0.00
2018-09-21T01:54:32.261Z,0.00
2018-09-21T01:56:25.261Z,0.00
2018-09-21T01:57:25.323Z,0.00
2018-09-21T01:59:18.321Z,0.00
2018-09-21T02:00:18.380Z,0.00
2018-09-21T02:02:11.375Z,0.00
2018-09-21T02:03:11.455Z,0.00
2018-09-21T02:05:04.437Z,0.00
2018-09-21T02:06:04.519Z,0.00
2018-09-21T02:07:57.489Z,0.00
2018-09-21T02:08:57.551Z,0.00
2018-09-21T02:10:50.548Z,0.00
2018-09-21T02:11:50.609Z,0.00
2018-09-21T02:13:43.607Z,0.00
2018-09-21T02:14:43.663Z,0.00
2018-09-21T02:16:36.654Z,0.00
2018-09-21T02:17:36.728Z,0.00
2018-09-21T02:19:29.721Z,0.00
2018-09-21T02:20:29.779Z,0.00
2018-09-21T02:22:22.771Z,0.00
2018-09-21T02:23:22.836Z,0.00
2018-09-21T02:25:15.833Z,0.00
2018-09-21T02:26:15.892Z,0.00
2018-09-21T02:28:08.892Z,0.00
2018-09-21T02:29:08.956Z,0.00
2018-09-21T02:31:01.966Z,0.00
2018-09-21T02:32:02.019Z,0.00
2018-09-21T02:33:55.025Z,0.00
2018-09-21T02:34:55.073Z,0.00
2018-09-21T02:36:48.071Z,0.00
2018-09-21T02:37:48.128Z,0.00
2018-09-21T02:39:41.127Z,0.00
2018-09-21T02:40:41.199Z,0.00
2018-09-21T02:42:34.181Z,0.00
2018-09-21T02:43:34.241Z,0.00
2018-09-21T02:45:27.238Z,0.00
2018-09-21T02:46:27.299Z,0.00
2018-09-21T02:48:20.290Z,0.00
2018-09-21T02:49:20.357Z,0.00
2018-09-21T02:51:13.353Z,0.00
2018-09-21T02:52:13.413Z,0.00
2018-09-21T02:54:06.404Z,0.00
2018-09-21T02:55:06.468Z,0.00
2018-09-21T02:56:59.466Z,0.00
2018-09-21T02:57:59.524Z,0.00
2018-09-21T02:59:52.521Z,0.00
2018-09-21T03:00:52.637Z,0.00
2018-09-21T03:02:45.576Z,0.00
2018-09-21T03:03:45.674Z,0.00
2018-09-21T03:05:38.638Z,0.00
2018-09-21T03:06:38.694Z,0.00
2018-09-21T03:08:31.693Z,0.00
2018-09-21T03:09:31.751Z,0.00
2018-09-21T03:11:24.751Z,0.00
2018-09-21T03:12:24.810Z,0.00
2018-09-21T03:14:17.804Z,0.00
2018-09-21T03:15:17.866Z,0.00
2018-09-21T03:17:10.865Z,0.00
2018-09-21T03:18:10.921Z,0.00
2018-09-21T03:20:03.910Z,0.00
2018-09-21T03:21:03.969Z,0.00
2018-09-21T03:22:56.974Z,0.00
2018-09-21T03:23:57.034Z,0.00
2018-09-21T03:25:50.029Z,0.00
2018-09-21T03:26:50.089Z,0.00
2018-09-21T03:28:43.082Z,0.00
2018-09-21T03:29:43.146Z,0.00
2018-09-21T03:31:36.670Z,0.00
2018-09-21T03:32:36.710Z,0.00
2018-09-21T03:34:29.708Z,0.00
2018-09-21T03:35:29.767Z,0.00
2018-09-21T03:37:22.766Z,0.00
2018-09-21T03:38:22.824Z,0.00
2018-09-21T03:40:15.820Z,0.00
2018-09-21T03:41:15.880Z,0.00
2018-09-21T03:43:08.929Z,0.00
2018-09-21T03:44:08.933Z,0.00
2018-09-21T03:46:01.925Z,0.00
2018-09-21T03:47:01.986Z,0.00
2018-09-21T03:48:54.990Z,0.00
2018-09-21T03:49:55.043Z,0.00
2018-09-21T03:51:48.043Z,0.00
2018-09-21T03:52:48.102Z,0.00
2018-09-21T03:54:41.100Z,0.00
2018-09-21T03:55:41.163Z,0.00
2018-09-21T03:57:34.162Z,0.00
2018-09-21T03:58:34.221Z,0.00
2018-09-21T04:00:27.214Z,0.00
2018-09-21T04:01:27.282Z,0.00
2018-09-21T04:03:20.276Z,0.00
2018-09-21T04:04:20.333Z,0.00
2018-09-21T04:06:13.331Z,0.00
2018-09-21T04:07:13.390Z,0.00
2018-09-21T04:09:06.389Z,0.00
2018-09-21T04:10:06.443Z,0.00
2018-09-21T04:11:59.456Z,0.00
2018-09-21T04:12:59.503Z,0.00
2018-09-21T04:14:52.495Z,0.00
2018-09-21T04:15:52.560Z,0.00
2018-09-21T04:17:45.565Z,0.00
2018-09-21T04:18:45.620Z,0.00
2018-09-21T04:20:38.615Z,0.00
2018-09-21T04:21:38.677Z,0.00
2018-09-21T04:23:31.677Z,0.00
2018-09-21T04:24:31.735Z,0.00
2018-09-21T04:26:24.728Z,0.00
2018-09-21T04:27:24.792Z,0.00
2018-09-21T04:29:17.792Z,0.00
2018-09-21T04:30:17.857Z,0.00
2018-09-21T04:32:10.873Z,0.00
2018-09-21T04:33:10.904Z,0.00
2018-09-21T04:35:03.903Z,0.00
2018-09-21T04:36:03.980Z,0.00
2018-09-21T04:37:56.973Z,0.00
2018-09-21T04:38:57.020Z,0.00
2018-09-21T04:40:50.013Z,0.00
2018-09-21T04:41:50.078Z,0.00
2018-09-21T04:43:43.077Z,0.00
2018-09-21T04:44:43.132Z,0.00
2018-09-21T04:46:36.130Z,0.00
2018-09-21T04:47:36.188Z,0.00
2018-09-21T04:49:29.195Z,0.00
2018-09-21T04:50:29.255Z,0.00
2018-09-21T04:52:22.305Z,0.00
2018-09-21T04:53:22.327Z,0.00
2018-09-21T04:55:15.323Z,0.00
2018-09-21T04:56:15.382Z,0.00
2018-09-21T04:58:08.377Z,0.00
2018-09-21T04:59:08.437Z,0.00
2018-09-21T05:01:01.437Z,0.00
2018-09-21T05:02:01.495Z,0.00
2018-09-21T05:03:54.519Z,0.00
2018-09-21T05:04:54.577Z,0.00
2018-09-21T05:06:47.568Z,0.00
2018-09-21T05:07:47.632Z,0.00
2018-09-21T05:09:40.630Z,0.00
2018-09-21T05:10:40.685Z,0.00
2018-09-21T05:12:33.675Z,0.00
2018-09-21T05:13:33.778Z,0.00
2018-09-21T05:15:26.742Z,5.63
2018-09-21T05:16:26.800Z,5.63
2018-09-21T05:18:19.794Z,5.63
2018-09-21T05:19:19.857Z,11.25
2018-09-21T05:21:12.854Z,11.25
2018-09-21T05:22:12.913Z,11.25
2018-09-21T05:24:05.907Z,11.25
2018-09-21T05:25:05.966Z,11.25
2018-09-21T05:26:58.961Z,11.25
2018-09-21T05:27:59.024Z,16.88
2018-09-21T05:29:52.024Z,16.88
2018-09-21T05:30:52.078Z,22.50
2018-09-21T05:32:45.080Z,22.50
2018-09-21T05:33:45.133Z,16.88
2018-09-21T05:35:38.203Z,16.88
2018-09-21T05:36:38.190Z,16.88
2018-09-21T05:38:31.217Z,22.50
2018-09-21T05:39:31.243Z,22.50
2018-09-21T05:41:24.245Z,28.13
2018-09-21T05:42:24.303Z,33.75
2018-09-21T05:44:17.296Z,39.38
2018-09-21T05:45:17.361Z,50.63
2018-09-21T05:47:10.373Z,56.25
2018-09-21T05:48:10.416Z,50.63
2018-09-21T05:50:03.477Z,50.63
2018-09-21T05:51:03.535Z,50.63
2018-09-21T05:52:56.534Z,45.00
2018-09-21T05:53:56.594Z,45.00
2018-09-21T05:55:49.598Z,45.00
2018-09-21T05:56:49.659Z,45.00
2018-09-21T05:58:42.651Z,50.63
2018-09-21T05:59:42.715Z,56.25
2018-09-21T06:01:35.722Z,56.25
2018-09-21T06:02:35.841Z,61.88
2018-09-21T06:04:28.780Z,61.88
2018-09-21T06:05:28.883Z,67.50
2018-09-21T06:07:21.848Z,67.50
2018-09-21T06:08:21.905Z,73.13
2018-09-21T06:10:14.902Z,90.00
2018-09-21T06:11:14.967Z,95.63
2018-09-21T06:13:07.970Z,106.88
2018-09-21T06:14:08.092Z,123.75
2018-09-21T06:16:01.022Z,163.13
2018-09-21T06:17:01.090Z,180.00
2018-09-21T06:18:54.089Z,202.50
2018-09-21T06:19:54.149Z,202.50
2018-09-21T06:21:47.149Z,185.63
2018-09-21T06:22:47.220Z,185.63
2018-09-21T06:24:40.204Z,202.50
2018-09-21T06:25:40.267Z,208.13
2018-09-21T06:27:33.267Z,236.25
2018-09-21T06:28:33.326Z,253.13
2018-09-21T06:30:26.322Z,253.13
2018-09-21T06:31:26.386Z,258.75
2018-09-21T06:33:19.382Z,275.63
2018-09-21T06:34:19.442Z,275.63
2018-09-21T06:36:12.445Z,264.38
2018-09-21T06:37:12.502Z,258.75
2018-09-21T06:39:05.500Z,270.00
2018-09-21T06:40:05.558Z,275.63
2018-09-21T06:41:58.559Z,298.13
2018-09-21T06:42:58.622Z,303.75
2018-09-21T06:44:51.622Z,326.25
2018-09-21T06:45:51.681Z,450.00
2018-09-21T06:47:44.682Z,303.75
2018-09-21T06:48:44.745Z,286.88
2018-09-21T06:50:37.745Z,275.63
2018-09-21T06:51:37.806Z,247.50
2018-09-21T06:53:30.803Z,191.25
2018-09-21T06:54:30.862Z,174.38
2018-09-21T06:56:23.860Z,157.50
2018-09-21T06:57:23.924Z,140.63
2018-09-21T06:59:16.934Z,140.63
2018-09-21T07:00:16.991Z,151.88
2018-09-21T07:02:09.997Z,163.13
2018-09-21T07:03:10.057Z,146.25
2018-09-21T07:05:03.064Z,129.38
2018-09-21T07:06:03.120Z,123.75
2018-09-21T07:07:56.115Z,106.88
2018-09-21T07:08:56.179Z,101.25
2018-09-21T07:10:49.183Z,95.63
2018-09-21T07:11:49.239Z,95.63
2018-09-21T07:13:42.248Z,95.63
2018-09-21T07:14:42.309Z,90.00
2018-09-21T07:16:35.298Z,84.38
2018-09-21T07:17:35.364Z,90.00
2018-09-21T07:19:28.366Z,90.00
2018-09-21T07:20:28.423Z,95.63
2018-09-21T07:22:21.426Z,101.25
2018-09-21T07:23:21.484Z,112.50
2018-09-21T07:25:14.488Z,140.63
2018-09-21T07:26:14.549Z,151.88
2018-09-21T07:28:07.547Z,157.50
2018-09-21T07:29:07.609Z,151.88
2018-09-21T07:31:00.703Z,168.75
2018-09-21T07:32:00.666Z,180.00
2018-09-21T07:33:53.659Z,236.25
2018-09-21T07:34:53.723Z,275.63
2018-09-21T07:36:46.727Z,365.63
2018-09-21T07:37:46.786Z,410.63
2018-09-21T07:39:39.792Z,410.63
2018-09-21T07:40:39.846Z,354.38
2018-09-21T07:42:32.847Z,230.63
2018-09-21T07:43:32.914Z,230.63
2018-09-21T07:45:25.914Z,191.25
2018-09-21T07:46:25.971Z,168.75
2018-09-21T07:48:18.971Z,191.25
2018-09-21T07:49:19.056Z,208.13
2018-09-21T07:51:12.031Z,185.63
2018-09-21T07:52:12.090Z,202.50
2018-09-21T07:54:05.084Z,196.88
2018-09-21T07:55:05.148Z,185.63
2018-09-21T07:56:58.145Z,185.63
2018-09-21T07:57:58.206Z,185.63
2018-09-21T07:59:51.206Z,191.25
2018-09-21T08:00:51.269Z,191.25
2018-09-21T08:02:44.274Z,196.88
2018-09-21T08:03:44.328Z,191.25
2018-09-21T08:05:37.332Z,213.75
2018-09-21T08:06:37.389Z,219.38
2018-09-21T08:08:30.390Z,270.00
2018-09-21T08:09:30.451Z,309.38
2018-09-21T08:11:23.449Z,360.00
2018-09-21T08:12:23.510Z,371.25
2018-09-21T08:14:16.501Z,433.13
2018-09-21T08:15:16.588Z,461.25
2018-09-21T08:17:09.569Z,511.88
2018-09-21T08:18:09.627Z,534.38
2018-09-21T08:20:02.623Z,483.75
2018-09-21T08:21:02.687Z,455.63
2018-09-21T08:22:55.689Z,450.00
2018-09-21T08:23:55.762Z,405.00
2018-09-21T08:25:48.741Z,461.25
2018-09-21T08:26:48.806Z,466.88
2018-09-21T08:28:41.809Z,399.38
2018-09-21T08:29:41.868Z,371.25
2018-09-21T08:31:35.495Z,455.63
2018-09-21T08:32:35.440Z,405.00
2018-09-21T08:34:28.496Z,337.50
2018-09-21T08:35:28.564Z,399.38
2018-09-21T08:37:21.657Z,281.25
2018-09-21T08:38:21.623Z,123.75
2018-09-21T08:40:14.624Z,78.75
2018-09-21T08:41:14.686Z,106.88
2018-09-21T08:43:07.690Z,90.00
2018-09-21T08:44:07.747Z,84.38
2018-09-21T08:46:00.747Z,236.25
2018-09-21T08:47:00.808Z,118.13
2018-09-21T08:48:53.814Z,129.38
2018-09-21T08:49:53.872Z,123.75
2018-09-21T08:51:46.868Z,61.88
2018-09-21T08:52:46.932Z,50.63
2018-09-21T08:54:39.937Z,45.00
2018-09-21T08:55:39.991Z,50.63
2018-09-21T08:57:32.996Z,61.88
2018-09-21T08:58:33.053Z,61.88
2018-09-21T09:00:26.045Z,67.50
2018-09-21T09:01:26.112Z,56.25
2018-09-21T09:03:19.179Z,39.38
2018-09-21T09:04:19.198Z,39.38
2018-09-21T09:06:12.192Z,78.75
2018-09-21T09:07:12.256Z,78.75
2018-09-21T09:09:05.257Z,45.00
2018-09-21T09:10:05.317Z,33.75
2018-09-21T09:11:58.315Z,28.13
2018-09-21T09:12:58.375Z,33.75
2018-09-21T09:14:51.375Z,101.25
2018-09-21T09:15:51.431Z,146.25
2018-09-21T09:17:44.425Z,140.63
2018-09-21T09:18:44.489Z,163.13
2018-09-21T09:20:37.487Z,174.38
2018-09-21T09:21:37.543Z,151.88
2018-09-21T09:23:30.540Z,140.63
2018-09-21T09:24:30.607Z,146.25
2018-09-21T09:26:23.606Z,135.00
2018-09-21T09:27:23.653Z,168.75
2018-09-21T09:29:16.652Z,253.13
2018-09-21T09:30:16.709Z,230.63
2018-09-21T09:32:10.210Z,241.88
2018-09-21T09:33:10.270Z,258.75
2018-09-21T09:35:03.271Z,343.13
2018-09-21T09:36:03.330Z,405.00
2018-09-21T09:37:56.324Z,534.38
2018-09-21T09:38:56.388Z,590.63
2018-09-21T09:40:49.388Z,466.88
2018-09-21T09:41:49.446Z,343.13
2018-09-21T09:43:42.441Z,376.88
2018-09-21T09:44:42.505Z,551.25
2018-09-21T09:46:35.505Z,433.13
2018-09-21T09:47:35.562Z,360.00
2018-09-21T09:49:28.570Z,286.88
2018-09-21T09:50:28.623Z,286.88
2018-09-21T09:52:21.613Z,320.63
2018-09-21T09:53:21.679Z,303.75
2018-09-21T09:55:14.681Z,320.63
2018-09-21T09:56:14.738Z,354.38
2018-09-21T09:58:07.737Z,376.88
2018-09-21T09:59:07.798Z,331.88
2018-09-21T10:01:00.794Z,264.38
2018-09-21T10:02:00.851Z,275.63
2018-09-21T10:03:53.874Z,337.50
2018-09-21T10:04:53.930Z,399.38
2018-09-21T10:06:46.923Z,315.00
2018-09-21T10:07:46.979Z,309.38
2018-09-21T10:09:39.974Z,315.00
2018-09-21T10:10:40.036Z,270.00
2018-09-21T10:12:33.036Z,348.75
2018-09-21T10:13:33.088Z,326.25
2018-09-21T10:15:26.095Z,331.88
2018-09-21T10:16:26.157Z,281.25
2018-09-21T10:18:19.142Z,315.00
2018-09-21T10:19:19.205Z,337.50
2018-09-21T10:21:12.202Z,382.50
2018-09-21T10:22:12.259Z,393.75
2018-09-21T10:24:05.295Z,365.63
2018-09-21T10:25:05.313Z,376.88
2018-09-21T10:26:58.354Z,360.00
2018-09-21T10:27:58.516Z,331.88
2018-09-21T10:29:51.385Z,253.13
2018-09-21T10:30:51.426Z,258.75
2018-09-21T10:32:44.416Z,354.38
2018-09-21T10:33:44.670Z,376.88
2018-09-21T10:35:37.559Z,461.25
2018-09-21T10:36:37.535Z,405.00
2018-09-21T10:38:30.528Z,399.38
2018-09-21T10:39:30.587Z,393.75
2018-09-21T10:41:23.588Z,331.88
2018-09-21T10:42:23.665Z,298.13
2018-09-21T10:44:16.635Z,427.50
2018-09-21T10:45:16.697Z,365.63
2018-09-21T10:47:09.698Z,331.88
2018-09-21T10:48:09.752Z,331.88
2018-09-21T10:50:02.741Z,275.63
2018-09-21T10:51:02.800Z,286.88
2018-09-21T10:52:55.800Z,331.88
2018-09-21T10:53:55.854Z,326.25
2018-09-21T10:55:48.845Z,365.63
2018-09-21T10:56:48.905Z,320.63
2018-09-21T10:58:41.972Z,540.00
2018-09-21T10:59:41.959Z,562.50
2018-09-21T11:01:34.954Z,579.38
2018-09-21T11:02:35.013Z,590.63
2018-09-21T11:04:28.016Z,388.13
2018-09-21T11:05:28.061Z,292.50
2018-09-21T11:07:21.110Z,433.13
2018-09-21T11:08:21.117Z,506.25
2018-09-21T11:10:14.106Z,601.88
2018-09-21T11:11:14.172Z,675.00
2018-09-21T11:13:07.249Z,680.63
2018-09-21T11:14:07.220Z,691.88
2018-09-21T11:16:00.210Z,613.13
2018-09-21T11:17:00.270Z,641.25
2018-09-21T11:18:53.267Z,725.63
2018-09-21T11:19:53.326Z,697.50
2018-09-21T11:21:46.323Z,613.13
2018-09-21T11:22:46.387Z,545.63
2018-09-21T11:24:39.384Z,433.13
2018-09-21T11:25:39.440Z,461.25
2018-09-21T11:27:32.433Z,590.63
2018-09-21T11:28:32.497Z,568.13
2018-09-21T11:30:25.502Z,534.38
2018-09-21T11:31:25.560Z,540.00
2018-09-21T11:33:18.557Z,613.13
2018-09-21T11:34:18.616Z,635.63
2018-09-21T11:36:11.606Z,736.88
2018-09-21T11:37:11.670Z,731.25
2018-09-21T11:39:04.673Z,720.00
2018-09-21T11:40:04.732Z,742.50
2018-09-21T11:41:57.720Z,720.00
2018-09-21T11:42:57.780Z,675.00
2018-09-21T11:44:50.785Z,652.50
2018-09-21T11:45:50.840Z,714.38
2018-09-21T11:47:43.972Z,675.00
2018-09-21T11:48:43.897Z,680.63
2018-09-21T11:50:36.897Z,472.50
2018-09-21T11:51:36.957Z,331.88
2018-09-21T11:53:29.955Z,680.63
2018-09-21T11:54:30.014Z,641.25
2018-09-21T11:56:23.004Z,556.88
2018-09-21T11:57:23.070Z,427.50
2018-09-21T11:59:16.072Z,163.13
2018-09-21T12:00:16.128Z,168.75
2018-09-21T12:02:09.146Z,191.25
2018-09-21T12:03:09.192Z,230.63
2018-09-21T12:05:02.282Z,123.75
2018-09-21T12:06:02.266Z,146.25
2018-09-21T12:07:55.259Z,135.00
2018-09-21T12:08:56.307Z,168.75
2018-09-21T12:10:48.334Z,264.38
2018-09-21T12:11:48.390Z,298.13
2018-09-21T12:13:41.380Z,517.50
2018-09-21T12:14:41.442Z,478.13
2018-09-21T12:16:34.453Z,624.38
2018-09-21T12:17:34.501Z,646.88
2018-09-21T12:19:27.511Z,573.75
2018-09-21T12:20:27.555Z,517.50
2018-09-21T12:22:20.551Z,596.25
2018-09-21T12:23:20.612Z,613.13
2018-09-21T12:25:13.608Z,607.50
2018-09-21T12:26:13.663Z,585.00
2018-09-21T12:28:06.655Z,540.00
2018-09-21T12:29:06.717Z,540.00
2018-09-21T12:30:59.716Z,551.25
2018-09-21T12:31:59.770Z,556.88
2018-09-21T12:33:52.760Z,540.00
2018-09-21T12:34:52.824Z,551.25
2018-09-21T12:36:45.821Z,523.13
2018-09-21T12:37:45.878Z,523.13
2018-09-21T12:39:38.876Z,506.25
2018-09-21T12:40:38.932Z,523.13
2018-09-21T12:42:31.988Z,540.00
2018-09-21T12:43:31.985Z,511.88
2018-09-21T12:45:24.986Z,534.38
2018-09-21T12:46:25.045Z,489.38
2018-09-21T12:48:18.049Z,523.13
2018-09-21T12:49:18.103Z,466.88
2018-09-21T12:51:11.100Z,416.25
2018-09-21T12:52:11.156Z,495.00
2018-09-21T12:54:04.158Z,483.75
2018-09-21T12:55:04.501Z,421.88
2018-09-21T12:56:57.396Z,360.00
2018-09-21T12:57:57.493Z,433.13
2018-09-21T12:59:50.317Z,466.88
2018-09-21T13:00:50.386Z,483.75
2018-09-21T13:02:43.388Z,455.63
2018-09-21T13:03:43.433Z,506.25
2018-09-21T13:05:36.423Z,444.38
2018-09-21T13:06:36.488Z,461.25
2018-09-21T13:08:29.512Z,466.88
2018-09-21T13:09:29.538Z,534.38
2018-09-21T13:11:22.547Z,489.38
2018-09-21T13:12:22.603Z,450.00
2018-09-21T13:14:15.617Z,511.88
2018-09-21T13:15:15.655Z,528.75
2018-09-21T13:17:08.650Z,545.63
2018-09-21T13:18:08.709Z,534.38
2018-09-21T13:20:01.702Z,433.13
2018-09-21T13:21:01.763Z,478.13
2018-09-21T13:22:54.759Z,517.50
2018-09-21T13:23:54.816Z,399.38
2018-09-21T13:25:47.852Z,399.38
2018-09-21T13:26:47.968Z,376.88
2018-09-21T13:28:40.880Z,410.63
2018-09-21T13:29:40.931Z,388.13
2018-09-21T13:31:34.432Z,393.75
2018-09-21T13:32:34.492Z,421.88
2018-09-21T13:34:27.491Z,410.63
2018-09-21T13:35:27.547Z,410.63
2018-09-21T13:37:20.540Z,466.88
2018-09-21T13:38:20.619Z,461.25
2018-09-21T13:40:14.098Z,534.38
2018-09-21T13:41:14.171Z,562.50
2018-09-21T13:43:07.170Z,489.38
2018-09-21T13:44:07.247Z,438.75
2018-09-21T13:46:00.217Z,506.25
2018-09-21T13:47:00.282Z,540.00
2018-09-21T13:48:53.292Z,472.50
2018-09-21T13:49:53.346Z,506.25
2018-09-21T13:51:46.383Z,562.50
2018-09-21T13:52:46.405Z,551.25
2018-09-21T13:54:39.408Z,438.75
2018-09-21T13:55:39.463Z,382.50
2018-09-21T13:57:32.957Z,388.13
2018-09-21T13:58:33.023Z,393.75
2018-09-21T14:00:26.019Z,360.00
2018-09-21T14:01:26.076Z,292.50
2018-09-21T14:03:19.106Z,348.75
2018-09-21T14:04:19.136Z,343.13
2018-09-21T14:06:12.125Z,348.75
2018-09-21T14:07:12.187Z,309.38
2018-09-21T14:09:05.183Z,253.13
2018-09-21T14:10:05.244Z,236.25
2018-09-21T14:11:58.239Z,320.63
2018-09-21T14:12:58.308Z,337.50
2018-09-21T14:14:51.297Z,298.13
2018-09-21T14:15:51.355Z,382.50
2018-09-21T14:17:44.359Z,225.00
2018-09-21T14:18:44.421Z,208.13
2018-09-21T14:20:37.444Z,163.13
2018-09-21T14:26:01.117Z,191.25
2018-09-21T14:27:01.171Z,196.88
2018-09-21T14:28:54.727Z,253.13
2018-09-21T14:29:54.729Z,303.75
2018-09-21T14:31:47.732Z,281.25
2018-09-21T14:32:47.787Z,225.00
2018-09-21T14:34:40.797Z,146.25
2018-09-21T14:35:40.852Z,135.00
2018-09-21T14:37:33.861Z,135.00
2018-09-21T14:38:33.922Z,168.75
2018-09-21T14:40:26.915Z,163.13
2018-09-21T14:41:26.971Z,163.13
2018-09-21T14:43:19.968Z,174.38
2018-09-21T14:44:20.029Z,180.00
2018-09-21T14:46:13.053Z,168.75
2018-09-21T14:47:13.100Z,174.38
2018-09-21T14:49:06.087Z,180.00
2018-09-21T14:50:06.146Z,208.13
2018-09-21T14:51:59.153Z,157.50
2018-09-21T14:52:59.206Z,151.88
2018-09-21T14:54:52.199Z,157.50
2018-09-21T14:55:52.258Z,157.50
2018-09-21T14:57:45.266Z,185.63
2018-09-21T14:58:45.319Z,151.88
2018-09-21T15:00:38.320Z,146.25
2018-09-21T15:01:38.361Z,146.25
2018-09-21T15:03:31.350Z,146.25
2018-09-21T15:04:31.428Z,135.00
2018-09-21T15:06:24.420Z,129.38
2018-09-21T15:07:24.476Z,146.25
2018-09-21T15:09:17.468Z,146.25
2018-09-21T15:10:17.537Z,146.25
2018-09-21T15:12:10.533Z,146.25
2018-09-21T15:13:10.588Z,146.25
2018-09-21T15:15:03.585Z,146.25
2018-09-21T15:16:03.645Z,146.25
2018-09-21T15:17:58.152Z,146.25
2018-09-21T15:18:58.203Z,140.63
2018-09-21T15:20:51.192Z,140.63
2018-09-21T15:21:51.251Z,140.63
2018-09-21T15:23:44.270Z,140.63
2018-09-21T15:24:44.319Z,135.00
2018-09-21T15:26:37.314Z,140.63
2018-09-21T15:27:37.368Z,146.25
2018-09-21T15:29:30.377Z,140.63
2018-09-21T15:30:30.426Z,140.63
2018-09-21T15:32:23.429Z,129.38
2018-09-21T15:33:23.483Z,140.63
2018-09-21T15:35:16.475Z,135.00
2018-09-21T15:36:16.538Z,135.00
2018-09-21T15:38:09.531Z,135.00
2018-09-21T15:39:09.584Z,135.00
2018-09-21T15:41:02.576Z,135.00
2018-09-21T15:42:02.641Z,135.00
2018-09-21T15:43:55.633Z,135.00
2018-09-21T15:44:55.682Z,135.00
2018-09-21T15:46:48.677Z,135.00
2018-09-21T15:47:48.745Z,135.00
2018-09-21T15:49:41.741Z,129.38
2018-09-21T15:50:41.793Z,123.75
2018-09-21T15:52:34.835Z,123.75
2018-09-21T15:53:34.844Z,123.75
2018-09-21T15:55:27.832Z,123.75
2018-09-21T15:56:27.894Z,106.88
2018-09-21T15:58:20.890Z,118.13
2018-09-21T15:59:20.943Z,112.50
2018-09-21T16:01:13.936Z,112.50
2018-09-21T16:02:14.000Z,106.88
2018-09-21T16:04:07.005Z,129.38
2018-09-21T16:05:07.049Z,118.13
2018-09-21T16:07:00.089Z,118.13
2018-09-21T16:08:00.111Z,118.13
2018-09-21T16:09:53.102Z,106.88
2018-09-21T16:10:53.159Z,101.25
2018-09-21T16:12:46.145Z,112.50
2018-09-21T16:13:46.218Z,112.50
2018-09-21T16:15:39.204Z,101.25
2018-09-21T16:16:39.261Z,101.25
2018-09-21T16:18:32.254Z,106.88
2018-09-21T16:19:32.309Z,106.88
2018-09-21T16:21:25.297Z,95.63
2018-09-21T16:22:25.359Z,101.25
2018-09-21T16:24:18.407Z,118.13
2018-09-21T16:25:18.406Z,135.00
2018-09-21T16:27:11.393Z,101.25
2018-09-21T16:28:11.458Z,106.88
2018-09-21T16:30:04.450Z,106.88
2018-09-21T16:31:04.504Z,101.25
2018-09-21T16:32:57.531Z,112.50
2018-09-21T16:33:57.550Z,101.25
2018-09-21T16:35:50.568Z,95.63
2018-09-21T16:36:50.603Z,90.00
2018-09-21T16:38:43.586Z,84.38
2018-09-21T16:39:43.648Z,84.38
2018-09-21T16:41:36.643Z,78.75
2018-09-21T16:42:36.697Z,78.75
2018-09-21T16:44:29.718Z,78.75
2018-09-21T16:45:29.747Z,78.75
2018-09-21T16:47:22.733Z,73.13
2018-09-21T16:48:22.797Z,67.50
2018-09-21T16:50:15.800Z,67.50
2018-09-21T16:51:15.891Z,67.50
2018-09-21T16:53:08.843Z,61.88
2018-09-21T16:54:08.902Z,61.88
2018-09-21T16:56:01.899Z,56.25
2018-09-21T16:57:02.011Z,56.25
2018-09-21T16:58:54.956Z,50.63
2018-09-21T16:59:55.005Z,50.63
2018-09-21T17:01:47.996Z,45.00
2018-09-21T17:02:48.052Z,45.00
2018-09-21T17:04:41.093Z,39.38
2018-09-21T17:05:41.099Z,39.38
2018-09-21T17:07:34.092Z,33.75
2018-09-21T17:08:34.145Z,33.75
2018-09-21T17:10:27.139Z,33.75
2018-09-21T17:11:27.273Z,28.13
2018-09-21T17:13:20.177Z,28.13
2018-09-21T17:14:20.237Z,28.13
2018-09-21T17:16:13.236Z,22.50
2018-09-21T17:17:13.284Z,22.50
2018-09-21T17:19:06.278Z,22.50
2018-09-21T17:20:06.389Z,16.88
2018-09-21T17:21:59.340Z,16.88
2018-09-21T17:22:59.390Z,16.88
2018-09-21T17:24:52.379Z,11.25
2018-09-21T17:25:52.462Z,11.25
2018-09-21T17:27:45.433Z,11.25
2018-09-21T17:28:45.484Z,11.25
2018-09-21T17:30:38.470Z,5.63
2018-09-21T17:31:38.548Z,5.63
2018-09-21T17:33:31.526Z,5.63
2018-09-21T17:34:31.582Z,5.63
2018-09-21T17:36:24.576Z,5.63
2018-09-21T17:37:24.627Z,0.00
2018-09-21T17:39:17.613Z,0.00
2018-09-21T17:40:17.674Z,0.00
2018-09-21T17:42:10.665Z,0.00
2018-09-21T17:43:10.769Z,0.00
2018-09-21T17:45:03.704Z,0.00
2018-09-21T17:46:03.765Z,0.00
2018-09-21T17:47:56.754Z,0.00
2018-09-21T17:48:56.809Z,0.00
2018-09-21T17:50:49.794Z,0.00
2018-09-21T17:51:49.855Z,0.00
2018-09-21T17:53:42.846Z,0.00
2018-09-21T17:54:42.906Z,0.00
2018-09-21T17:56:35.889Z,0.00
2018-09-21T17:57:35.952Z,0.00
2018-09-21T17:59:29.452Z,0.00
2018-09-21T18:00:29.504Z,0.00
2018-09-21T18:02:22.504Z,0.00
2018-09-21T18:03:22.551Z,0.00
2018-09-21T18:05:15.534Z,0.00
2018-09-21T18:06:15.596Z,0.00
2018-09-21T18:08:08.588Z,0.00
2018-09-21T18:09:08.641Z,0.00
2018-09-21T18:11:01.630Z,0.00
2018-09-21T18:12:01.691Z,0.00
2018-09-21T18:13:54.685Z,0.00
2018-09-21T18:14:54.742Z,0.00
2018-09-21T18:16:47.736Z,0.00
2018-09-21T18:17:47.795Z,0.00
2018-09-21T18:19:40.795Z,0.00
2018-09-21T18:20:40.843Z,0.00
2018-09-21T18:22:33.867Z,0.00
2018-09-21T18:23:33.925Z,0.00
2018-09-21T18:25:26.952Z,0.00
2018-09-21T18:26:26.970Z,0.00
2018-09-21T18:28:19.966Z,0.00
2018-09-21T18:29:20.030Z,0.00
2018-09-21T18:31:13.013Z,0.00
2018-09-21T18:32:13.071Z,0.00